Time;durP1;ratioP1;P1;durP2;ratioP2;P2;SDS_P1;SDS_P2;PMS_P1;PMS_P2;Temp;Humidity;BMP_temperature;BMP_pressure;BME280_temperature;BME280_humidity;BME280_pressure;Samples;Min_cycle;Max_cycle;Signal;HPM_P1;HPM_P2
2022/03/25 00:01:38;;;;;;;8.73;4.63;;;11.50;42.60;;;;;;4974425;28;20112;-84
2022/03/25 00:04:04;;;;;;;8.50;4.53;;;11.50;42.70;;;;;;4977681;28;20277;-84
2022/03/25 00:06:30;;;;;;;8.80;4.77;;;11.40;42.80;;;;;;4998615;28;20022;-85
2022/03/25 00:08:56;;;;;;;8.60;4.20;;;11.40;43.00;;;;;;4997900;28;20034;-85
2022/03/25 00:11:21;;;;;;;9.00;4.47;;;11.30;43.00;;;;;;4972889;28;20805;-85
2022/03/25 00:13:47;;;;;;;8.80;4.53;;;11.30;43.20;;;;;;4988144;28;20034;-85
2022/03/25 00:16:13;;;;;;;7.83;4.30;;;11.20;43.20;;;;;;4986160;28;22531;-85
2022/03/25 00:18:39;;;;;;;8.23;4.60;;;11.20;43.30;;;;;;4982445;28;20125;-85
2022/03/25 00:21:05;;;;;;;8.10;4.53;;;11.20;43.40;;;;;;4966723;28;20130;-84
2022/03/25 00:23:31;;;;;;;9.77;4.93;;;11.10;43.50;;;;;;4996958;28;20028;-84
2022/03/25 00:25:56;;;;;;;10.18;5.07;;;11.00;43.50;;;;;;4974303;28;20045;-85
2022/03/25 00:28:22;;;;;;;10.32;4.82;;;11.00;43.70;;;;;;4991316;28;20037;-85
2022/03/25 00:30:49;;;;;;;9.03;5.17;;;10.90;43.80;;;;;;4983230;28;20641;-85
2022/03/25 00:33:16;;;;;;;10.50;4.78;;;10.90;44.00;;;;;;4987057;28;20725;-84
2022/03/25 00:35:42;;;;;;;10.60;4.72;;;10.80;44.00;;;;;;4977921;28;20402;-85
2022/03/25 00:38:08;;;;;;;9.05;4.85;;;10.80;44.10;;;;;;5003551;28;20029;-85
2022/03/25 00:40:33;;;;;;;8.23;4.43;;;10.80;44.20;;;;;;4993369;28;20030;-85
2022/03/25 00:43:00;;;;;;;9.73;4.70;;;10.80;44.30;;;;;;4979480;28;20033;-85
2022/03/25 00:45:28;;;;;;;8.27;4.88;;;10.80;44.50;;;;;;4981556;28;20230;-85
2022/03/25 00:47:59;;;;;;;10.18;5.20;;;10.70;44.50;;;;;;4978757;28;20034;-85
2022/03/25 00:50:26;;;;;;;9.97;4.87;;;10.70;44.60;;;;;;4987414;28;20029;-85
2022/03/25 00:52:51;;;;;;;11.18;5.03;;;10.70;44.60;;;;;;4984567;28;20041;-85
2022/03/25 00:55:18;;;;;;;10.75;5.03;;;10.60;44.70;;;;;;4996003;28;20382;-85
2022/03/25 00:57:44;;;;;;;9.73;4.80;;;10.50;45.50;;;;;;4999526;28;20206;-85
2022/03/25 01:00:10;;;;;;;8.93;4.60;;;10.50;44.90;;;;;;4981548;28;20311;-85
2022/03/25 01:02:36;;;;;;;9.32;5.32;;;10.50;45.00;;;;;;4974334;28;20030;-85
2022/03/25 01:05:02;;;;;;;8.52;4.53;;;10.50;45.00;;;;;;4997632;28;20036;-85
2022/03/25 01:07:27;;;;;;;8.88;5.07;;;10.50;45.10;;;;;;4992837;28;20280;-85
2022/03/25 01:09:53;;;;;;;8.50;4.57;;;10.40;45.20;;;;;;4990254;28;20607;-85
2022/03/25 01:12:21;;;;;;;8.93;4.73;;;10.30;45.30;;;;;;4995787;28;20545;-85
2022/03/25 01:14:47;;;;;;;9.97;4.93;;;10.30;45.30;;;;;;5001694;28;20296;-85
2022/03/25 01:17:14;;;;;;;9.57;4.93;;;10.20;45.40;;;;;;4996233;28;20087;-85
2022/03/25 01:19:41;;;;;;;9.77;4.90;;;10.20;45.40;;;;;;4991279;28;20057;-85
2022/03/25 01:22:07;;;;;;;9.10;4.93;;;10.20;45.50;;;;;;5007774;28;20026;-85
2022/03/25 01:24:32;;;;;;;9.38;5.13;;;10.10;45.60;;;;;;4989237;28;20022;-84
2022/03/25 01:26:59;;;;;;;10.70;4.73;;;10.10;45.70;;;;;;5015883;28;20095;-84
2022/03/25 01:29:26;;;;;;;9.93;4.85;;;10.10;45.90;;;;;;5024309;28;20423;-84
2022/03/25 01:31:53;;;;;;;9.65;4.97;;;10.00;45.90;;;;;;5006274;28;20124;-85
2022/03/25 01:34:19;;;;;;;10.00;4.97;;;10.00;46.00;;;;;;5010040;28;20045;-85
2022/03/25 01:36:46;;;;;;;9.98;4.63;;;10.00;46.10;;;;;;5006452;28;20026;-85
2022/03/25 01:39:12;;;;;;;9.13;4.60;;;9.90;46.10;;;;;;4988860;28;22589;-85
2022/03/25 01:41:38;;;;;;;7.75;4.53;;;9.90;46.20;;;;;;5014322;28;20041;-85
2022/03/25 01:44:04;;;;;;;8.68;4.88;;;9.80;46.30;;;;;;5002200;28;20030;-85
2022/03/25 01:46:30;;;;;;;10.17;5.00;;;9.80;46.40;;;;;;5005405;28;20087;-85
2022/03/25 01:48:56;;;;;;;9.70;4.80;;;9.80;46.50;;;;;;5003687;28;20034;-85
2022/03/25 01:51:29;;;;;;;9.63;5.15;;;9.70;46.40;;;;;;4978478;28;20034;-85
2022/03/25 01:54:00;;;;;;;10.03;5.00;;;9.70;47.30;;;;;;5000148;28;20509;-84
2022/03/25 01:56:26;;;;;;;9.43;4.88;;;9.60;47.30;;;;;;5022733;28;20072;-84
2022/03/25 01:58:52;;;;;;;11.75;5.53;;;9.60;46.70;;;;;;5020342;28;20072;-84
2022/03/25 02:01:18;;;;;;;10.30;5.47;;;9.60;46.90;;;;;;4988512;28;20243;-85
2022/03/25 02:03:44;;;;;;;10.57;5.53;;;9.50;47.10;;;;;;5004751;28;20030;-85
2022/03/25 02:06:10;;;;;;;11.50;5.60;;;9.50;47.20;;;;;;4975801;28;20884;-85
2022/03/25 02:08:36;;;;;;;10.35;5.47;;;9.50;47.30;;;;;;4997886;28;20030;-85
2022/03/25 02:11:02;;;;;;;9.60;4.60;;;9.50;47.20;;;;;;5005958;28;20042;-85
2022/03/25 02:13:28;;;;;;;10.20;5.07;;;9.40;47.30;;;;;;5002459;28;20117;-85
2022/03/25 02:15:55;;;;;;;9.27;4.70;;;9.40;48.10;;;;;;4999766;28;20454;-85
2022/03/25 02:18:22;;;;;;;8.80;4.63;;;9.30;47.60;;;;;;4991429;28;20203;-85
2022/03/25 02:20:49;;;;;;;8.03;4.53;;;9.30;47.50;;;;;;4987445;28;21474;-85
2022/03/25 02:23:15;;;;;;;9.07;4.63;;;9.30;47.70;;;;;;4992031;28;20210;-85
2022/03/25 02:25:42;;;;;;;10.13;4.93;;;9.30;47.80;;;;;;4988796;28;20560;-85
2022/03/25 02:28:08;;;;;;;10.82;5.28;;;9.20;47.70;;;;;;5000817;28;20095;-84
2022/03/25 02:30:36;;;;;;;10.68;5.10;;;9.20;47.70;;;;;;5005567;28;20029;-84
2022/03/25 02:33:04;;;;;;;9.83;5.07;;;9.20;48.00;;;;;;4986709;28;20386;-84
2022/03/25 02:35:48;;;;;;;8.95;4.88;;;9.10;48.00;;;;;;4987216;28;20033;-84
2022/03/25 02:38:19;;;;;;;9.57;4.93;;;9.10;49.50;;;;;;4973948;28;20046;-85
2022/03/25 02:40:45;;;;;;;9.40;4.90;;;9.10;48.20;;;;;;5008333;28;20253;-85
2022/03/25 02:43:11;;;;;;;11.68;5.18;;;9.00;48.10;;;;;;4976341;28;20022;-85
2022/03/25 02:45:37;;;;;;;11.07;5.07;;;9.00;48.20;;;;;;4986228;28;20572;-85
2022/03/25 02:48:04;;;;;;;10.70;5.70;;;8.90;48.30;;;;;;4967505;28;20038;-85
2022/03/25 02:50:30;;;;;;;10.73;5.50;;;8.90;48.50;;;;;;5012304;28;20026;-85
2022/03/25 02:53:00;;;;;;;11.18;5.40;;;8.90;48.50;;;;;;5005195;28;20414;-85
2022/03/25 02:55:26;;;;;;;10.27;4.93;;;8.90;48.90;;;;;;5014961;28;20025;-85
2022/03/25 02:57:53;;;;;;;11.70;5.00;;;8.90;48.60;;;;;;4977918;28;20037;-85
2022/03/25 03:00:20;;;;;;;9.65;5.18;;;8.80;48.70;;;;;;5001765;28;20586;-85
2022/03/25 03:02:46;;;;;;;9.85;4.93;;;8.80;48.60;;;;;;4985446;28;20406;-85
2022/03/25 03:05:12;;;;;;;11.40;5.22;;;8.70;48.70;;;;;;4996658;28;20228;-85
2022/03/25 03:07:38;;;;;;;12.27;5.30;;;8.70;48.80;;;;;;4986502;28;20034;-85
2022/03/25 03:10:08;;;;;;;10.10;5.15;;;8.70;48.90;;;;;;5010952;28;20033;-85
2022/03/25 03:12:35;;;;;;;9.50;5.03;;;8.70;49.50;;;;;;4995905;28;20041;-85
2022/03/25 03:15:03;;;;;;;10.68;5.07;;;8.60;48.90;;;;;;4993826;28;20026;-85
2022/03/25 03:17:28;;;;;;;9.70;5.00;;;8.60;49.00;;;;;;4968889;28;21022;-85
2022/03/25 03:19:54;;;;;;;12.63;4.93;;;8.50;49.10;;;;;;5015534;28;20354;-85
2022/03/25 03:22:20;;;;;;;9.48;5.05;;;8.50;49.10;;;;;;4998015;28;20346;-85
2022/03/25 03:24:46;;;;;;;9.63;4.90;;;8.50;49.30;;;;;;4976006;28;20269;-85
2022/03/25 03:27:12;;;;;;;10.97;5.10;;;8.50;49.30;;;;;;5007622;28;20165;-84
2022/03/25 03:29:38;;;;;;;12.55;5.25;;;8.40;49.30;;;;;;4983760;28;20034;-84
2022/03/25 03:32:05;;;;;;;10.20;5.35;;;8.40;49.40;;;;;;5013692;28;20045;-84
2022/03/25 03:34:31;;;;;;;10.63;5.10;;;8.40;49.50;;;;;;4997563;28;20188;-85
2022/03/25 03:36:57;;;;;;;9.20;4.87;;;8.40;49.60;;;;;;5000355;28;20400;-85
2022/03/25 03:39:23;;;;;;;9.23;5.20;;;8.30;49.60;;;;;;4993847;28;20257;-85
2022/03/25 03:41:48;;;;;;;10.00;5.03;;;8.30;49.60;;;;;;5005336;28;20026;-85
2022/03/25 03:44:14;;;;;;;10.82;5.30;;;8.30;49.80;;;;;;4988331;28;20488;-85
2022/03/25 03:46:40;;;;;;;10.10;5.32;;;8.20;49.80;;;;;;5016219;28;20048;-85
2022/03/25 03:49:06;;;;;;;10.30;5.20;;;8.20;49.90;;;;;;4984761;28;20101;-85
2022/03/25 03:51:31;;;;;;;10.30;5.43;;;8.20;50.00;;;;;;5014398;28;20033;-85
2022/03/25 03:53:57;;;;;;;10.43;5.37;;;8.20;50.10;;;;;;5011767;28;20034;-85
2022/03/25 03:56:23;;;;;;;9.55;5.15;;;8.10;50.20;;;;;;4992847;28;20127;-85
2022/03/25 03:58:50;;;;;;;10.88;5.10;;;8.10;50.20;;;;;;5000049;28;20026;-85
2022/03/25 04:01:16;;;;;;;10.30;5.00;;;8.10;50.30;;;;;;4967880;28;20542;-85
2022/03/25 04:03:41;;;;;;;12.32;5.47;;;8.10;50.30;;;;;;4983416;28;20523;-85
2022/03/25 04:06:07;;;;;;;13.82;5.15;;;8.00;50.30;;;;;;4962193;28;20038;-85
2022/03/25 04:08:35;;;;;;;9.83;4.90;;;8.00;50.40;;;;;;4994643;28;20034;-85
2022/03/25 04:11:01;;;;;;;10.50;5.40;;;8.00;50.60;;;;;;5005346;28;20055;-85
2022/03/25 04:13:27;;;;;;;10.65;5.15;;;7.90;50.40;;;;;;4982175;28;20056;-85
2022/03/25 04:15:53;;;;;;;13.93;5.60;;;7.90;50.50;;;;;;4991301;28;20061;-85
2022/03/25 04:18:18;;;;;;;11.73;6.20;;;7.90;50.50;;;;;;4996612;28;20313;-85
2022/03/25 04:20:44;;;;;;;11.63;5.20;;;7.90;50.50;;;;;;5002347;28;20116;-85
2022/03/25 04:23:10;;;;;;;10.10;4.83;;;7.80;50.60;;;;;;5012495;28;20474;-85
2022/03/25 04:25:35;;;;;;;11.57;5.68;;;7.80;50.60;;;;;;4998373;28;20057;-85
2022/03/25 04:28:01;;;;;;;10.60;4.83;;;7.70;50.60;;;;;;4986840;28;20042;-84
2022/03/25 04:30:32;;;;;;;9.70;5.05;;;7.70;50.70;;;;;;4989865;28;20111;-84
2022/03/25 04:32:59;;;;;;;10.80;5.65;;;7.70;51.20;;;;;;4998015;28;20034;-84
2022/03/25 04:35:25;;;;;;;9.93;4.63;;;7.60;50.70;;;;;;4980979;28;20041;-84
2022/03/25 04:37:52;;;;;;;9.80;5.13;;;7.60;50.80;;;;;;5001073;28;20119;-84
2022/03/25 04:40:21;;;;;;;11.82;5.28;;;7.60;50.90;;;;;;5013017;28;20018;-84
2022/03/25 04:42:48;;;;;;;10.88;4.85;;;7.50;51.10;;;;;;4991425;28;20030;-85
2022/03/25 04:45:14;;;;;;;10.07;5.20;;;7.50;51.00;;;;;;4984849;28;20553;-85
2022/03/25 04:47:40;;;;;;;10.53;4.90;;;7.40;51.00;;;;;;4998834;28;20398;-85
2022/03/25 04:50:06;;;;;;;12.43;5.47;;;7.40;51.10;;;;;;4995542;28;20069;-84
2022/03/25 04:52:32;;;;;;;11.23;5.72;;;7.40;51.20;;;;;;5002356;28;20029;-85
2022/03/25 04:54:58;;;;;;;12.20;5.53;;;7.30;51.20;;;;;;4997335;28;20029;-85
2022/03/25 04:57:24;;;;;;;11.75;5.65;;;7.30;51.30;;;;;;4988260;28;20247;-85
2022/03/25 04:59:49;;;;;;;11.50;4.97;;;7.20;51.30;;;;;;4982340;28;20022;-85
2022/03/25 05:02:15;;;;;;;10.23;5.37;;;7.20;51.40;;;;;;4987180;28;20286;-85
2022/03/25 05:04:41;;;;;;;11.98;5.65;;;7.20;51.40;;;;;;4982535;28;20372;-85
2022/03/25 05:07:12;;;;;;;11.50;5.43;;;7.10;51.40;;;;;;4982466;28;20034;-85
2022/03/25 05:09:37;;;;;;;13.85;5.22;;;7.10;51.50;;;;;;5002316;28;20026;-85
2022/03/25 05:12:04;;;;;;;11.90;5.18;;;7.10;51.60;;;;;;4973379;28;20041;-85
2022/03/25 05:14:30;;;;;;;10.60;5.07;;;7.10;51.70;;;;;;4991439;28;20109;-85
2022/03/25 05:16:55;;;;;;;10.70;4.90;;;7.00;51.80;;;;;;4995547;28;20033;-84
2022/03/25 05:19:22;;;;;;;10.27;4.53;;;7.00;51.80;;;;;;4980508;28;20279;-84
2022/03/25 05:21:48;;;;;;;12.25;5.15;;;7.00;51.80;;;;;;4998752;28;20030;-84
2022/03/25 05:24:14;;;;;;;11.68;4.80;;;6.90;51.80;;;;;;4965412;28;20029;-84
2022/03/25 05:26:40;;;;;;;11.57;5.45;;;6.90;51.90;;;;;;5014825;28;20528;-84
2022/03/25 05:29:06;;;;;;;12.27;4.83;;;6.90;51.90;;;;;;4970626;28;20478;-85
2022/03/25 05:31:32;;;;;;;11.32;5.22;;;6.90;52.00;;;;;;4985385;28;20093;-84
2022/03/25 05:33:57;;;;;;;11.73;5.22;;;6.80;52.00;;;;;;4989689;28;20038;-84
2022/03/25 05:36:23;;;;;;;11.50;5.83;;;6.80;52.00;;;;;;4978049;28;20212;-84
2022/03/25 05:38:51;;;;;;;11.73;4.90;;;6.80;52.10;;;;;;5000380;28;20077;-85
2022/03/25 05:41:17;;;;;;;10.87;4.80;;;6.70;52.00;;;;;;5012151;28;20292;-85
2022/03/25 05:43:42;;;;;;;13.02;5.13;;;6.70;52.10;;;;;;4973957;28;20025;-85
2022/03/25 05:46:08;;;;;;;12.18;4.90;;;6.70;52.30;;;;;;5010340;28;20026;-85
2022/03/25 05:48:34;;;;;;;12.10;5.20;;;6.70;52.40;;;;;;4996499;28;20050;-85
2022/03/25 05:50:59;;;;;;;13.70;5.30;;;6.70;52.40;;;;;;5002322;28;20018;-84
2022/03/25 05:53:26;;;;;;;10.73;4.60;;;6.60;52.50;;;;;;4985322;28;20283;-85
2022/03/25 05:55:52;;;;;;;11.10;5.40;;;6.60;52.60;;;;;;5014379;28;20441;-85
2022/03/25 05:58:18;;;;;;;11.97;4.93;;;6.60;52.60;;;;;;4987154;28;20038;-84
2022/03/25 06:00:43;;;;;;;11.15;4.95;;;6.60;52.70;;;;;;4983216;28;21940;-84
2022/03/25 06:03:10;;;;;;;10.83;4.67;;;6.70;52.90;;;;;;4978562;28;20077;-85
2022/03/25 06:05:36;;;;;;;12.60;5.30;;;6.70;52.80;;;;;;5002490;28;20088;-84
2022/03/25 06:08:02;;;;;;;10.57;5.57;;;6.70;52.90;;;;;;4981500;28;20486;-85
2022/03/25 06:10:27;;;;;;;11.98;5.55;;;6.70;53.00;;;;;;4997729;28;20045;-85
2022/03/25 06:12:53;;;;;;;12.57;4.47;;;6.60;53.10;;;;;;5006029;28;20022;-85
2022/03/25 06:15:19;;;;;;;11.77;4.75;;;6.70;53.10;;;;;;5000219;28;20073;-84
2022/03/25 06:17:46;;;;;;;10.83;5.13;;;6.70;53.30;;;;;;4985349;28;20611;-84
2022/03/25 06:20:13;;;;;;;11.70;5.15;;;6.70;53.40;;;;;;4999546;28;20068;-84
2022/03/25 06:22:40;;;;;;;11.00;5.22;;;6.70;54.20;;;;;;4981325;28;20410;-84
2022/03/25 06:25:08;;;;;;;10.43;4.88;;;6.80;53.70;;;;;;4969099;28;20034;-85
2022/03/25 06:27:33;;;;;;;13.05;5.60;;;6.80;54.00;;;;;;5012432;28;20030;-85
2022/03/25 06:30:00;;;;;;;11.77;5.07;;;6.90;54.00;;;;;;4966092;28;20058;-85
2022/03/25 06:32:26;;;;;;;11.32;5.50;;;7.00;54.10;;;;;;4984366;28;20022;-85
2022/03/25 06:34:52;;;;;;;12.20;5.65;;;7.00;54.20;;;;;;5010330;28;20026;-85
2022/03/25 06:37:18;;;;;;;10.90;5.80;;;7.10;54.50;;;;;;4999450;28;20477;-86
2022/03/25 06:39:44;;;;;;;12.15;5.75;;;7.30;54.50;;;;;;4955946;28;20029;-84
2022/03/25 06:42:09;;;;;;;12.90;6.27;;;7.30;54.60;;;;;;5013455;28;20537;-84
2022/03/25 06:44:35;;;;;;;11.23;5.50;;;7.50;54.80;;;;;;4975575;28;20486;-84
2022/03/25 06:47:01;;;;;;;13.27;6.10;;;7.60;55.00;;;;;;5016661;28;20018;-84
2022/03/25 06:49:26;;;;;;;13.90;6.82;;;7.80;55.40;;;;;;4980607;28;20044;-84
2022/03/25 06:51:52;;;;;;;10.63;5.63;;;8.00;55.90;;;;;;5002548;28;20558;-84
2022/03/25 06:54:18;;;;;;;12.25;6.25;;;8.30;56.10;;;;;;4978287;28;20033;-84
2022/03/25 06:56:44;;;;;;;12.23;6.97;;;8.60;56.20;;;;;;4988793;28;20367;-86
2022/03/25 06:59:10;;;;;;;13.37;6.33;;;8.90;56.10;;;;;;5006699;28;20636;-85
2022/03/25 07:01:35;;;;;;;13.73;6.53;;;9.10;55.80;;;;;;4989146;28;20139;-85
2022/03/25 07:04:03;;;;;;;13.57;6.37;;;9.30;55.70;;;;;;4995005;28;20153;-85
2022/03/25 07:06:30;;;;;;;13.53;6.43;;;9.50;55.50;;;;;;5004515;28;20691;-85
2022/03/25 07:08:56;;;;;;;14.80;7.47;;;9.70;55.40;;;;;;4975933;28;20057;-85
2022/03/25 07:11:24;;;;;;;12.65;7.00;;;9.80;55.20;;;;;;5004640;28;20026;-85
2022/03/25 07:13:50;;;;;;;13.10;6.93;;;10.00;55.30;;;;;;5001064;28;20804;-85
2022/03/25 07:16:17;;;;;;;14.23;6.95;;;10.30;55.60;;;;;;4969112;28;20231;-85
2022/03/25 07:18:43;;;;;;;14.20;6.73;;;10.60;56.00;;;;;;4999652;28;20126;-85
2022/03/25 07:21:09;;;;;;;11.95;6.45;;;10.90;56.20;;;;;;4986629;28;20037;-85
2022/03/25 07:23:34;;;;;;;14.40;7.10;;;11.20;56.20;;;;;;4995648;28;20419;-85
2022/03/25 07:26:00;;;;;;;15.43;7.70;;;11.50;56.10;;;;;;4982189;28;20152;-85
2022/03/25 07:28:26;;;;;;;13.68;7.53;;;11.90;56.00;;;;;;4997074;28;20022;-85
2022/03/25 07:30:52;;;;;;;15.27;8.03;;;12.20;55.70;;;;;;5000808;28;20032;-85
2022/03/25 07:33:18;;;;;;;15.18;8.02;;;12.50;55.20;;;;;;5000014;28;20574;-85
2022/03/25 07:35:44;;;;;;;17.05;8.48;;;12.80;54.90;;;;;;4995588;28;20033;-85
2022/03/25 07:38:10;;;;;;;15.03;8.17;;;13.10;55.20;;;;;;4998653;28;20986;-85
2022/03/25 07:40:35;;;;;;;18.73;8.90;;;13.50;55.50;;;;;;5001696;28;20037;-85
2022/03/25 07:43:03;;;;;;;15.83;8.07;;;13.90;55.60;;;;;;4975527;28;20638;-85
2022/03/25 07:45:28;;;;;;;16.95;8.60;;;14.30;55.70;;;;;;5000999;28;20429;-84
2022/03/25 07:47:54;;;;;;;18.17;9.55;;;14.80;55.70;;;;;;4989476;28;20025;-85
2022/03/25 07:50:22;;;;;;;17.53;9.90;;;15.30;55.40;;;;;;4987292;28;20112;-84
2022/03/25 07:52:50;;;;;;;17.98;9.55;;;15.70;54.80;;;;;;4984174;28;20048;-85
2022/03/25 07:55:18;;;;;;;20.40;10.38;;;16.20;54.50;;;;;;4964054;28;20211;-85
2022/03/25 07:57:44;;;;;;;16.70;9.40;;;16.60;54.00;;;;;;4973553;28;20310;-85
2022/03/25 08:00:11;;;;;;;22.00;9.97;;;17.00;53.70;;;;;;4988359;28;20129;-85
2022/03/25 08:02:41;;;;;;;18.45;9.82;;;17.40;53.40;;;;;;4974525;28;20033;-85
2022/03/25 08:05:09;;;;;;;18.58;10.15;;;17.80;52.80;;;;;;4994455;28;20132;-84
2022/03/25 08:07:45;;;;;;;17.83;10.13;;;18.10;52.70;;;;;;4969412;28;20033;-85
2022/03/25 08:10:11;;;;;;;18.83;10.48;;;18.60;51.30;;;;;;4966459;28;20160;-85
2022/03/25 08:12:36;;;;;;;20.70;11.17;;;18.90;51.60;;;;;;4983697;28;20057;-85
2022/03/25 08:15:06;;;;;;;19.00;10.52;;;19.30;50.90;;;;;;5001168;28;20326;-85
2022/03/25 08:17:43;;;;;;;17.37;10.30;;;19.60;50.00;;;;;;4994144;28;20029;-84
2022/03/25 08:20:09;;;;;;;19.48;11.15;;;19.90;50.20;;;;;;4990816;28;20018;-84
2022/03/25 08:22:34;;;;;;;16.90;10.18;;;20.30;49.80;;;;;;4975119;28;20493;-84
2022/03/25 08:27:51;;;;;;;19.27;11.52;;;20.90;48.80;;;;;;4968367;28;20429;-84
2022/03/25 08:30:16;;;;;;;19.40;11.55;;;21.20;48.20;;;;;;4962286;28;20448;-85
2022/03/25 08:32:42;;;;;;;21.67;12.97;;;21.50;47.80;;;;;;4978905;28;20092;-84
2022/03/25 08:35:08;;;;;;;21.63;11.23;;;21.70;47.00;;;;;;4959778;28;20433;-84
2022/03/25 08:37:34;;;;;;;20.40;11.63;;;22.00;46.60;;;;;;4984037;28;20041;-84
2022/03/25 08:40:00;;;;;;;21.83;13.10;;;22.20;46.00;;;;;;4978528;28;20038;-83
2022/03/25 08:42:25;;;;;;;24.17;12.57;;;22.40;45.70;;;;;;4953072;28;20014;-84
2022/03/25 08:44:51;;;;;;;20.07;12.00;;;22.60;45.50;;;;;;4994187;28;20087;-84
2022/03/25 08:47:17;;;;;;;21.40;12.75;;;22.90;45.10;;;;;;4995140;28;20155;-84
2022/03/25 08:49:43;;;;;;;19.23;11.55;;;23.10;45.10;;;;;;4989242;28;20034;-84
2022/03/25 08:52:09;;;;;;;19.07;12.00;;;23.30;44.50;;;;;;5001802;28;20026;-84
2022/03/25 08:54:34;;;;;;;22.05;12.82;;;23.60;43.90;;;;;;4969607;28;20136;-84
2022/03/25 08:57:02;;;;;;;19.37;11.83;;;23.80;43.60;;;;;;4958623;28;20075;-84
2022/03/25 08:59:28;;;;;;;18.85;11.50;;;24.00;43.40;;;;;;4981569;28;20033;-84
2022/03/25 09:01:55;;;;;;;20.17;12.77;;;24.30;42.90;;;;;;4974611;28;20030;-84
2022/03/25 09:04:21;;;;;;;18.20;11.37;;;24.50;42.50;;;;;;4987285;28;20793;-84
2022/03/25 09:06:46;;;;;;;18.70;11.50;;;24.80;42.20;;;;;;4982963;28;20045;-84
2022/03/25 09:09:12;;;;;;;19.33;11.47;;;25.10;41.60;;;;;;4959809;28;20219;-84
2022/03/25 09:11:40;;;;;;;17.88;11.52;;;25.30;41.00;;;;;;4976135;28;20029;-84
2022/03/25 09:14:06;;;;;;;17.55;11.88;;;25.40;40.40;;;;;;4986655;28;20422;-84
2022/03/25 09:16:32;;;;;;;19.73;11.93;;;25.60;39.80;;;;;;4995814;28;20120;-84
2022/03/25 09:18:58;;;;;;;19.40;11.73;;;25.80;39.40;;;;;;4995462;28;20585;-84
2022/03/25 09:21:23;;;;;;;19.10;11.93;;;25.90;39.10;;;;;;4994168;28;20018;-84
2022/03/25 09:23:49;;;;;;;17.03;10.87;;;26.10;38.40;;;;;;4988312;28;20552;-83
2022/03/25 09:26:16;;;;;;;17.40;11.52;;;26.20;38.30;;;;;;5008464;28;20057;-84
2022/03/25 09:28:42;;;;;;;19.55;11.05;;;26.40;37.60;;;;;;4978249;28;20247;-84
2022/03/25 09:31:08;;;;;;;17.43;11.67;;;26.50;37.20;;;;;;4981294;28;20034;-85
2022/03/25 09:33:33;;;;;;;20.77;11.50;;;26.70;36.40;;;;;;4985886;28;20022;-85
2022/03/25 09:35:59;;;;;;;16.73;10.75;;;26.70;35.90;;;;;;4990577;28;20038;-84
2022/03/25 09:38:25;;;;;;;16.10;10.33;;;26.80;35.80;;;;;;4969367;28;20306;-85
2022/03/25 09:40:53;;;;;;;15.00;9.88;;;26.90;35.80;;;;;;4985540;28;20110;-84
2022/03/25 09:43:19;;;;;;;18.40;10.93;;;26.90;34.30;;;;;;4978353;28;20053;-85
2022/03/25 09:45:46;;;;;;;14.93;9.88;;;27.00;34.50;;;;;;5010630;28;20521;-85
2022/03/25 09:48:13;;;;;;;13.05;8.65;;;27.10;34.00;;;;;;5000708;28;20025;-85
2022/03/25 09:50:40;;;;;;;14.47;8.80;;;27.20;34.20;;;;;;4966241;28;20301;-85
2022/03/25 09:53:07;;;;;;;15.38;8.75;;;27.30;33.80;;;;;;4965051;28;20034;-85
2022/03/25 09:55:46;;;;;;;14.18;8.60;;;27.50;33.70;;;;;;4976517;28;20629;-84
2022/03/25 09:58:18;;;;;;;16.00;8.98;;;27.70;32.10;;;;;;4993904;28;20029;-84
2022/03/25 10:00:51;;;;;;;13.75;9.10;;;27.90;33.30;;;;;;4980939;28;20278;-85
2022/03/25 10:03:32;;;;;;;13.37;8.23;;;28.10;31.40;;;;;;5002134;28;20029;-85
2022/03/25 10:06:01;;;;;;;11.60;7.80;;;28.30;29.90;;;;;;4995665;28;20061;-84
2022/03/25 10:08:33;;;;;;;12.57;7.85;;;28.50;32.50;;;;;;4971229;28;20286;-85
2022/03/25 10:11:18;;;;;;;14.65;7.75;;;28.60;30.60;;;;;;5004415;28;20412;-84
2022/03/25 10:13:43;;;;;;;12.43;8.13;;;28.80;30.00;;;;;;4993051;28;20034;-84
2022/03/25 10:16:29;;;;;;;15.23;8.60;;;28.90;30.40;;;;;;4995909;28;20485;-84
2022/03/25 10:18:56;;;;;;;13.80;8.82;;;29.00;28.50;;;;;;4983178;28;20038;-84
2022/03/25 10:21:23;;;;;;;14.13;8.50;;;29.20;30.00;;;;;;4997790;28;20022;-84
2022/03/25 10:23:49;;;;;;;11.33;7.77;;;29.30;29.70;;;;;;4982386;28;20022;-85
2022/03/25 10:26:15;;;;;;;12.15;8.82;;;29.40;29.80;;;;;;5002000;28;20155;-84
2022/03/25 10:28:43;;;;;;;14.15;8.85;;;29.60;29.50;;;;;;4977320;28;20034;-85
2022/03/25 10:31:19;;;;;;;11.73;8.20;;;29.70;29.10;;;;;;4974965;28;20752;-84
2022/03/25 10:33:52;;;;;;;11.73;8.40;;;29.80;28.20;;;;;;5018443;28;20175;-84
2022/03/25 10:36:25;;;;;;;14.40;8.25;;;29.90;28.10;;;;;;5005493;28;20057;-84
2022/03/25 10:38:54;;;;;;;13.13;8.93;;;30.10;28.70;;;;;;4982073;28;20044;-84
2022/03/25 10:41:23;;;;;;;14.80;9.00;;;30.20;28.50;;;;;;4989171;28;20294;-84
2022/03/25 10:43:56;;;;;;;12.43;8.70;;;30.40;28.30;;;;;;4996364;28;20474;-84
2022/03/25 10:46:37;;;;;;;13.03;8.77;;;30.60;27.60;;;;;;4990068;28;20087;-84
2022/03/25 10:49:08;;;;;;;13.73;8.90;;;30.80;27.00;;;;;;4994236;28;20394;-84
2022/03/25 10:51:35;;;;;;;13.55;8.73;;;30.90;26.90;;;;;;5016994;28;20033;-84
2022/03/25 10:54:07;;;;;;;13.70;9.50;;;31.00;27.00;;;;;;5000734;28;20137;-84
2022/03/25 10:56:51;;;;;;;14.07;8.77;;;31.00;26.00;;;;;;4984291;28;20026;-84
2022/03/25 10:59:28;;;;;;;13.93;8.13;;;31.10;25.30;;;;;;4963734;28;20612;-83
2022/03/25 11:02:05;;;;;;;13.20;9.23;;;31.10;26.10;;;;;;4977890;28;20477;-84
2022/03/25 11:04:31;;;;;;;13.05;8.23;;;31.10;25.50;;;;;;5002941;28;20130;-84
2022/03/25 11:06:58;;;;;;;10.85;7.35;;;31.10;26.20;;;;;;5012259;28;20045;-84
2022/03/25 11:09:27;;;;;;;10.77;7.55;;;31.30;26.30;;;;;;4999636;28;20030;-83
2022/03/25 11:11:53;;;;;;;10.10;7.63;;;31.40;26.10;;;;;;4992702;28;20103;-84
2022/03/25 11:14:22;;;;;;;11.13;7.68;;;31.60;25.90;;;;;;5014418;28;20030;-84
2022/03/25 11:16:59;;;;;;;11.35;7.47;;;31.80;25.70;;;;;;4998066;28;20395;-84
2022/03/25 11:19:26;;;;;;;12.68;8.57;;;31.90;24.00;;;;;;4980505;28;20049;-84
2022/03/25 11:21:52;;;;;;;13.90;9.18;;;32.10;25.30;;;;;;4980047;28;20263;-84
2022/03/25 11:24:37;;;;;;;12.43;8.80;;;32.20;25.20;;;;;;4994437;28;20387;-84
2022/03/25 11:27:15;;;;;;;13.02;8.30;;;32.30;24.20;;;;;;4967557;28;20053;-84
2022/03/25 11:29:45;;;;;;;10.70;7.70;;;32.40;23.70;;;;;;4982383;28;20126;-84
2022/03/25 11:32:12;;;;;;;10.57;6.88;;;32.50;24.40;;;;;;4988900;28;20537;-83
2022/03/25 11:34:42;;;;;;;12.50;8.00;;;32.60;24.80;;;;;;4992176;28;20041;-84
2022/03/25 11:37:21;;;;;;;11.63;8.23;;;32.70;24.10;;;;;;4993530;28;20030;-84
2022/03/25 11:39:48;;;;;;;11.82;7.97;;;32.90;23.20;;;;;;4999121;28;20034;-83
2022/03/25 11:42:40;;;;;;;11.57;7.45;;;32.90;24.40;;;;;;4987144;28;20098;-82
2022/03/25 11:45:21;;;;;;;11.13;7.22;;;33.10;23.40;;;;;;4968373;28;20029;-84
2022/03/25 11:48:04;;;;;;;11.38;7.63;;;33.30;22.20;;;;;;4974158;28;20904;-83
2022/03/25 11:50:33;;;;;;;11.57;7.70;;;33.30;22.50;;;;;;4993982;28;20535;-84
2022/03/25 11:53:24;;;;;;;9.70;7.38;;;33.40;23.60;;;;;;5012583;28;20057;-84
2022/03/25 11:56:09;;;;;;;11.43;7.95;;;33.50;22.40;;;;;;4967120;28;20042;-84
2022/03/25 11:58:54;;;;;;;10.50;7.85;;;33.60;23.30;;;;;;4977371;28;20045;-84
2022/03/25 12:01:20;;;;;;;10.70;7.70;;;33.70;22.10;;;;;;5012172;28;20041;-84
2022/03/25 12:03:49;;;;;;;11.60;8.60;;;33.80;23.10;;;;;;4953503;28;20453;-83
2022/03/25 12:06:15;;;;;;;10.98;7.93;;;33.80;22.50;;;;;;4998066;28;20026;-83
2022/03/25 12:08:57;;;;;;;12.00;9.18;;;33.70;22.70;;;;;;4994525;28;20060;-83
2022/03/25 12:11:53;;;;;;;13.18;8.25;;;33.70;21.70;;;;;;4995655;28;20026;-84
2022/03/25 12:14:27;;;;;;;12.15;8.05;;;33.60;22.00;;;;;;4982455;28;20515;-83
2022/03/25 12:16:52;;;;;;;11.60;8.30;;;33.50;22.50;;;;;;4989432;28;20041;-83
2022/03/25 12:19:27;;;;;;;13.18;8.23;;;33.50;22.80;;;;;;5000149;28;20018;-82
2022/03/25 12:22:00;;;;;;;10.32;8.00;;;33.50;22.30;;;;;;4983943;28;20034;-84
2022/03/25 12:24:27;;;;;;;11.37;8.13;;;33.60;22.30;;;;;;5016596;28;20041;-84
2022/03/25 12:27:02;;;;;;;11.40;8.10;;;33.70;22.30;;;;;;4976655;28;20326;-82
2022/03/25 12:29:29;;;;;;;12.25;7.97;;;33.80;22.00;;;;;;4988895;28;20030;-83
2022/03/25 12:31:55;;;;;;;13.23;8.13;;;33.80;22.30;;;;;;5004737;28;20315;-83
2022/03/25 12:34:40;;;;;;;11.98;8.25;;;33.80;22.30;;;;;;4998864;28;20041;-83
2022/03/25 12:37:10;;;;;;;11.57;8.03;;;33.80;21.60;;;;;;4983345;28;20049;-83
2022/03/25 12:39:36;;;;;;;12.40;8.02;;;33.90;21.80;;;;;;5003966;28;20045;-82
2022/03/25 12:42:10;;;;;;;10.95;7.18;;;33.90;22.00;;;;;;5015567;28;20461;-83
2022/03/25 12:44:36;;;;;;;15.20;8.30;;;34.00;21.50;;;;;;4988362;28;20501;-83
2022/03/25 12:47:03;;;;;;;11.33;7.63;;;34.00;21.80;;;;;;5007033;28;20148;-84
2022/03/25 12:49:29;;;;;;;11.15;7.70;;;34.00;21.50;;;;;;4971638;28;20784;-83